createdAt,value
2018-08-10T00:01:44.053Z,23.10
2018-08-10T00:04:12.476Z,23.10
2018-08-10T00:06:40.859Z,23.00
2018-08-10T00:09:10.881Z,22.90
2018-08-10T00:11:39.454Z,22.80
2018-08-10T00:14:07.877Z,22.80
2018-08-10T00:16:36.242Z,22.90
2018-08-10T00:19:04.628Z,22.70
2018-08-10T00:21:32.973Z,22.60
2018-08-10T00:24:01.338Z,22.70
2018-08-10T00:26:29.765Z,22.60
2018-08-10T00:28:58.149Z,22.60
2018-08-10T00:31:26.534Z,22.60
2018-08-10T00:33:54.892Z,22.50
2018-08-10T00:36:23.261Z,22.50
2018-08-10T00:38:51.649Z,22.50
2018-08-10T00:41:20.039Z,22.40
2018-08-10T00:43:48.426Z,22.40
2018-08-10T00:46:16.780Z,22.30
2018-08-10T00:48:45.129Z,22.30
2018-08-10T00:51:13.782Z,22.30
2018-08-10T00:53:42.200Z,22.40
2018-08-10T00:56:10.537Z,22.40
2018-08-10T00:58:38.910Z,22.30
2018-08-10T01:01:07.269Z,22.30
2018-08-10T01:03:35.616Z,22.20
2018-08-10T01:06:04.011Z,22.30
2018-08-10T01:08:32.450Z,22.20
2018-08-10T01:11:00.842Z,22.10
2018-08-10T01:13:29.307Z,22.20
2018-08-10T01:15:57.678Z,22.10
2018-08-10T01:18:26.053Z,22.10
2018-08-10T01:20:54.426Z,22.10
2018-08-10T01:23:22.796Z,22.00
2018-08-10T01:25:51.177Z,21.80
2018-08-10T01:28:19.644Z,21.80
2018-08-10T01:30:48.023Z,21.90
2018-08-10T01:33:16.475Z,21.90
2018-08-10T01:35:44.886Z,21.80
2018-08-10T01:38:13.457Z,21.80
2018-08-10T01:40:41.878Z,21.60
2018-08-10T01:43:10.284Z,21.70
2018-08-10T01:45:38.879Z,21.70
2018-08-10T01:48:07.346Z,21.80
2018-08-10T01:50:35.738Z,21.70
2018-08-10T01:53:04.176Z,21.60
2018-08-10T01:55:32.578Z,21.60
2018-08-10T01:58:00.990Z,21.50
2018-08-10T02:00:29.382Z,21.50
2018-08-10T02:02:57.840Z,21.40
2018-08-10T02:05:26.398Z,21.40
2018-08-10T02:07:54.854Z,21.20
2018-08-10T02:10:23.263Z,21.20
2018-08-10T02:12:54.956Z,21.20
2018-08-10T02:15:23.378Z,21.10
2018-08-10T02:17:51.780Z,21.20
2018-08-10T02:20:21.764Z,21.20
2018-08-10T02:22:50.178Z,21.10
2018-08-10T02:25:20.203Z,20.90
2018-08-10T02:27:49.382Z,20.90
2018-08-10T02:30:18.986Z,20.80
2018-08-10T02:32:48.470Z,20.90
2018-08-10T02:35:16.943Z,20.80
2018-08-10T02:37:45.366Z,20.80
2018-08-10T02:40:19.739Z,20.70
2018-08-10T02:42:48.939Z,20.70
2018-08-10T02:45:17.742Z,20.60
2018-08-10T02:47:46.904Z,20.60
2018-08-10T02:50:15.383Z,20.50
2018-08-10T02:52:43.964Z,20.40
2018-08-10T02:55:12.810Z,20.50
2018-08-10T02:57:41.643Z,20.40
2018-08-10T03:00:11.971Z,20.40
2018-08-10T03:02:40.415Z,20.30
2018-08-10T03:05:09.484Z,20.00
2018-08-10T03:07:38.208Z,20.10
2018-08-10T03:10:08.024Z,19.90
2018-08-10T03:12:36.475Z,19.80
2018-08-10T03:15:07.126Z,19.60
2018-08-10T03:17:35.560Z,19.60
2018-08-10T03:20:04.681Z,19.50
2018-08-10T03:22:33.290Z,19.60
2018-08-10T03:25:01.664Z,19.60
2018-08-10T03:27:30.061Z,19.50
2018-08-10T03:29:58.469Z,19.40
2018-08-10T03:32:26.850Z,19.20
2018-08-10T03:34:55.259Z,19.20
2018-08-10T03:37:23.645Z,19.40
2018-08-10T03:39:52.027Z,19.50
2018-08-10T03:42:20.587Z,19.40
2018-08-10T03:44:48.962Z,19.30
2018-08-10T03:47:17.370Z,19.00
2018-08-10T03:49:45.796Z,19.10
2018-08-10T03:52:14.166Z,19.10
2018-08-10T03:54:42.592Z,19.10
2018-08-10T03:57:10.968Z,19.20
2018-08-10T03:59:39.330Z,19.20
2018-08-10T04:02:07.769Z,19.30
2018-08-10T04:04:36.117Z,19.30
2018-08-10T04:07:04.523Z,19.40
2018-08-10T04:09:32.902Z,19.40
2018-08-10T04:12:01.242Z,19.40
2018-08-10T04:14:29.624Z,19.50
2018-08-10T04:16:58.020Z,19.40
2018-08-10T04:19:26.437Z,19.50
2018-08-10T04:21:54.860Z,19.50
2018-08-10T04:24:23.275Z,19.60
2018-08-10T04:26:51.642Z,19.50
2018-08-10T04:29:20.035Z,19.50
2018-08-10T04:31:48.390Z,19.40
2018-08-10T04:34:16.757Z,19.30
2018-08-10T04:36:45.124Z,19.30
2018-08-10T04:39:14.308Z,19.40
2018-08-10T04:41:43.187Z,19.30
2018-08-10T04:44:11.824Z,19.20
2018-08-10T04:46:40.194Z,19.10
2018-08-10T04:49:08.976Z,18.90
2018-08-10T04:51:37.498Z,18.90
2018-08-10T04:54:06.026Z,18.90
2018-08-10T04:56:34.502Z,18.90
2018-08-10T04:59:03.046Z,18.90
2018-08-10T05:01:31.418Z,19.00
2018-08-10T05:03:59.798Z,18.90
2018-08-10T05:06:28.170Z,18.90
2018-08-10T05:08:56.529Z,18.80
2018-08-10T05:11:24.975Z,18.80
2018-08-10T05:13:53.348Z,19.00
2018-08-10T05:16:21.721Z,18.90
2018-08-10T05:18:50.118Z,18.90
2018-08-10T05:21:18.541Z,19.00
2018-08-10T05:23:47.086Z,18.90
2018-08-10T05:26:15.443Z,18.80
2018-08-10T05:28:43.857Z,18.80
2018-08-10T05:31:12.271Z,18.70
2018-08-10T05:33:40.644Z,18.70
2018-08-10T05:36:09.225Z,18.70
2018-08-10T05:38:37.678Z,18.70
2018-08-10T05:41:06.078Z,18.80
2018-08-10T05:43:34.600Z,18.90
2018-08-10T05:46:02.970Z,18.90
2018-08-10T05:48:36.612Z,18.90
2018-08-10T05:51:05.137Z,19.00
2018-08-10T05:53:33.407Z,19.10
2018-08-10T05:56:01.759Z,19.20
2018-08-10T05:58:30.448Z,19.20
2018-08-10T06:00:58.794Z,19.30
2018-08-10T06:03:27.895Z,19.40
2018-08-10T06:05:56.254Z,19.30
2018-08-10T06:08:24.655Z,19.20
2018-08-10T06:10:53.071Z,19.30
2018-08-10T06:13:21.453Z,19.30
2018-08-10T06:15:49.809Z,19.40
2018-08-10T06:18:18.171Z,19.20
2018-08-10T06:20:46.558Z,19.20
2018-08-10T06:23:14.960Z,19.30
2018-08-10T06:25:43.319Z,19.40
2018-08-10T06:28:11.885Z,19.40
2018-08-10T06:30:40.283Z,19.40
2018-08-10T06:33:08.663Z,19.40
2018-08-10T06:35:37.044Z,19.40
2018-08-10T06:38:05.555Z,19.50
2018-08-10T06:40:33.988Z,19.50
2018-08-10T06:43:02.717Z,19.50
2018-08-10T06:45:44.552Z,19.70
2018-08-10T06:48:12.927Z,19.60
2018-08-10T06:50:41.327Z,19.50
2018-08-10T06:53:09.966Z,19.60
2018-08-10T06:55:38.358Z,19.40
2018-08-10T06:58:06.783Z,19.60
2018-08-10T07:00:35.226Z,19.60
2018-08-10T07:03:03.603Z,19.60
2018-08-10T07:05:31.991Z,19.70
2018-08-10T07:08:00.545Z,19.80
2018-08-10T07:10:28.945Z,19.90
2018-08-10T07:12:57.356Z,20.00
2018-08-10T07:15:25.911Z,20.10
2018-08-10T07:17:54.287Z,20.10
2018-08-10T07:20:22.702Z,20.60
2018-08-10T07:22:51.154Z,21.60
2018-08-10T07:25:19.522Z,22.80
2018-08-10T07:27:47.886Z,24.00
2018-08-10T07:30:16.266Z,25.10
2018-08-10T07:32:44.619Z,25.30
2018-08-10T07:35:13.010Z,26.00
2018-08-10T07:37:41.418Z,26.60
2018-08-10T07:40:09.842Z,27.10
2018-08-10T07:42:38.224Z,27.60
2018-08-10T07:45:06.785Z,27.80
2018-08-10T07:47:35.123Z,28.20
2018-08-10T07:50:03.504Z,27.50
2018-08-10T07:52:32.096Z,27.40
2018-08-10T07:55:00.426Z,27.70
2018-08-10T07:57:28.779Z,28.00
2018-08-10T07:59:57.186Z,28.40
2018-08-10T08:02:25.530Z,28.00
2018-08-10T08:04:53.934Z,28.00
2018-08-10T08:07:22.351Z,28.70
2018-08-10T08:09:50.729Z,29.10
2018-08-10T08:12:19.268Z,29.10
2018-08-10T08:14:47.650Z,29.00
2018-08-10T08:17:16.046Z,28.30
2018-08-10T08:19:44.440Z,28.40
2018-08-10T08:22:19.483Z,28.90
2018-08-10T08:24:48.109Z,28.50
2018-08-10T08:27:17.639Z,27.90
2018-08-10T08:29:46.043Z,28.10
2018-08-10T08:32:14.443Z,28.50
2018-08-10T08:34:43.929Z,28.20
2018-08-10T08:37:12.350Z,28.10
2018-08-10T08:40:15.806Z,28.00
2018-08-10T08:42:45.266Z,27.30
2018-08-10T08:46:17.092Z,27.10
2018-08-10T08:48:47.493Z,27.30
2018-08-10T08:51:20.367Z,27.10
2018-08-10T08:56:06.431Z,27.10
2018-08-10T08:58:35.516Z,27.40
2018-08-10T09:01:04.564Z,27.10
2018-08-10T09:04:42.922Z,26.80
2018-08-10T09:07:11.357Z,26.40
2018-08-10T09:09:40.618Z,26.80
2018-08-10T09:12:09.035Z,26.80
2018-08-10T09:14:43.452Z,26.20
2018-08-10T09:17:12.164Z,26.20
2018-08-10T09:19:41.287Z,25.90
2018-08-10T09:22:09.992Z,25.70
2018-08-10T09:24:38.526Z,25.40
2018-08-10T09:27:06.995Z,25.20
2018-08-10T09:29:35.764Z,25.10
2018-08-10T09:32:04.694Z,24.90
2018-08-10T09:34:33.204Z,24.90
2018-08-10T09:37:02.072Z,24.70
2018-08-10T09:39:40.599Z,24.50
2018-08-10T09:42:09.063Z,23.90
2018-08-10T09:44:37.468Z,24.10
2018-08-10T09:47:06.610Z,24.10
2018-08-10T09:49:39.424Z,24.20
2018-08-10T09:52:07.895Z,24.50
2018-08-10T09:54:47.581Z,24.40
2018-08-10T09:57:15.970Z,24.60
2018-08-10T09:59:44.416Z,24.90
2018-08-10T10:02:18.043Z,25.10
2018-08-10T10:04:46.451Z,25.00
2018-08-10T10:07:14.968Z,24.80
2018-08-10T10:09:43.338Z,24.90
2018-08-10T10:12:11.743Z,25.10
2018-08-10T10:14:40.306Z,24.70
2018-08-10T10:17:08.654Z,24.70
2018-08-10T10:19:37.029Z,24.90
2018-08-10T10:22:05.606Z,24.90
2018-08-10T10:24:33.991Z,24.90
2018-08-10T10:27:02.376Z,25.10
2018-08-10T10:29:30.904Z,25.30
2018-08-10T10:31:59.322Z,25.20
2018-08-10T10:34:27.703Z,25.30
2018-08-10T10:36:56.245Z,25.10
2018-08-10T10:39:24.592Z,25.00
2018-08-10T10:41:53.008Z,24.70
2018-08-10T10:44:21.439Z,24.70
2018-08-10T10:46:49.838Z,24.80
2018-08-10T10:49:18.242Z,24.80
2018-08-10T10:51:46.739Z,24.80
2018-08-10T10:54:15.171Z,24.80
2018-08-10T10:56:43.781Z,24.50
2018-08-10T10:59:12.114Z,24.40
2018-08-10T11:01:40.524Z,24.30
2018-08-10T11:04:08.931Z,24.30
2018-08-10T11:06:37.883Z,24.20
2018-08-10T11:09:07.774Z,24.30
2018-08-10T11:11:36.255Z,24.30
2018-08-10T11:14:04.635Z,24.40
2018-08-10T11:16:33.131Z,24.10
2018-08-10T11:19:01.550Z,24.10
2018-08-10T11:21:29.970Z,24.20
2018-08-10T11:23:58.710Z,24.30
2018-08-10T11:26:27.069Z,24.30
2018-08-10T11:28:55.488Z,24.10
2018-08-10T11:31:24.050Z,24.10
2018-08-10T11:33:52.461Z,23.90
2018-08-10T11:36:20.838Z,23.70
2018-08-10T11:38:49.255Z,23.50
2018-08-10T11:41:17.655Z,23.50
2018-08-10T11:43:46.351Z,23.60
2018-08-10T11:46:14.790Z,23.60
2018-08-10T11:48:43.202Z,23.70
2018-08-10T11:51:11.639Z,23.70
2018-08-10T11:53:40.074Z,23.70
2018-08-10T11:56:08.455Z,23.70
2018-08-10T11:58:36.882Z,23.80
2018-08-10T12:01:05.277Z,23.80
2018-08-10T12:03:33.698Z,23.70
2018-08-10T12:06:02.289Z,23.70
2018-08-10T12:08:31.122Z,23.80
2018-08-10T12:10:59.689Z,23.80
2018-08-10T12:13:28.146Z,23.90
2018-08-10T12:15:56.561Z,23.70
2018-08-10T12:18:25.003Z,23.60
2018-08-10T12:20:53.415Z,23.70
2018-08-10T12:23:21.819Z,23.50
2018-08-10T12:25:50.206Z,23.50
2018-08-10T12:28:18.591Z,23.40
2018-08-10T12:30:47.002Z,23.50
2018-08-10T12:33:15.389Z,23.70
2018-08-10T12:35:43.802Z,23.90
2018-08-10T12:38:12.242Z,23.90
2018-08-10T12:40:40.656Z,24.00
2018-08-10T12:43:09.114Z,23.80
2018-08-10T12:45:37.523Z,23.70
2018-08-10T12:48:06.156Z,23.60
2018-08-10T12:50:34.778Z,23.50
2018-08-10T12:53:03.106Z,23.50
2018-08-10T12:55:31.460Z,23.60
2018-08-10T12:57:59.863Z,23.60
2018-08-10T13:00:28.243Z,23.80
2018-08-10T13:02:56.685Z,23.90
2018-08-10T13:05:25.216Z,24.00
2018-08-10T13:07:53.610Z,24.00
2018-08-10T13:10:21.977Z,24.00
2018-08-10T13:12:50.378Z,24.10
2018-08-10T13:15:18.777Z,24.20
2018-08-10T13:17:47.170Z,24.10
2018-08-10T13:20:15.555Z,23.90
2018-08-10T13:22:44.305Z,23.70
2018-08-10T13:25:12.678Z,23.60
2018-08-10T13:27:41.075Z,23.50
2018-08-10T13:30:11.137Z,23.50
2018-08-10T13:32:39.505Z,23.60
2018-08-10T13:35:07.981Z,23.70
2018-08-10T13:37:36.390Z,23.80
2018-08-10T13:40:05.252Z,23.90
2018-08-10T13:42:33.721Z,24.00
2018-08-10T13:45:02.124Z,24.00
2018-08-10T13:47:30.716Z,24.00
2018-08-10T13:49:59.315Z,24.00
2018-08-10T13:52:27.714Z,24.10
2018-08-10T13:54:56.124Z,24.20
2018-08-10T13:57:24.690Z,24.20
2018-08-10T13:59:53.142Z,24.20
2018-08-10T14:02:21.584Z,24.20
2018-08-10T14:04:50.200Z,24.10
2018-08-10T14:07:18.635Z,24.20
2018-08-10T14:09:47.051Z,24.20
2018-08-10T14:12:15.497Z,24.20
2018-08-10T14:14:43.894Z,24.30
2018-08-10T14:17:12.339Z,24.20
2018-08-10T14:19:40.794Z,24.20
2018-08-10T14:22:09.286Z,24.20
2018-08-10T14:24:37.706Z,24.20
2018-08-10T14:27:06.623Z,24.20
2018-08-10T14:29:35.118Z,24.30
2018-08-10T14:32:03.547Z,24.30
2018-08-10T14:34:32.006Z,24.30
2018-08-10T14:37:00.413Z,24.30
2018-08-10T14:39:28.810Z,24.40
2018-08-10T14:41:57.403Z,24.30
2018-08-10T14:44:25.813Z,24.30
2018-08-10T14:46:54.262Z,24.30
2018-08-10T14:49:22.630Z,24.20
2018-08-10T14:51:51.026Z,24.30
2018-08-10T14:54:19.425Z,24.30
2018-08-10T14:56:47.847Z,24.30
2018-08-10T14:59:16.241Z,24.40
2018-08-10T15:01:44.600Z,24.40
2018-08-10T15:04:13.040Z,24.40
2018-08-10T15:06:41.591Z,24.40
2018-08-10T15:09:12.381Z,24.40
2018-08-10T15:11:41.010Z,24.40
2018-08-10T15:14:09.896Z,24.40
2018-08-10T15:16:38.595Z,24.40
2018-08-10T15:19:07.118Z,24.40
2018-08-10T15:21:35.507Z,24.40
2018-08-10T15:24:03.910Z,24.40
2018-08-10T15:26:32.348Z,24.40
2018-08-10T15:29:00.758Z,24.40
2018-08-10T15:31:29.134Z,24.40
2018-08-10T15:33:57.561Z,24.50
2018-08-10T15:36:25.917Z,24.50
2018-08-10T15:38:54.431Z,24.50
2018-08-10T15:41:22.838Z,24.50
2018-08-10T15:43:51.232Z,24.50
2018-08-10T15:46:19.803Z,24.50
2018-08-10T15:48:48.185Z,24.50
2018-08-10T15:51:16.578Z,24.50
2018-08-10T15:53:45.007Z,24.50
2018-08-10T15:56:13.466Z,24.50
2018-08-10T15:58:42.087Z,24.40
2018-08-10T16:01:10.465Z,24.40
2018-08-10T16:03:38.837Z,24.40
2018-08-10T16:06:07.508Z,24.40
2018-08-10T16:08:36.009Z,24.40
2018-08-10T16:11:04.403Z,24.40
2018-08-10T16:13:34.546Z,24.30
2018-08-10T16:16:02.922Z,24.20
2018-08-10T16:18:31.350Z,24.20
2018-08-10T16:20:59.726Z,24.20
2018-08-10T16:23:28.125Z,24.20
2018-08-10T16:25:56.501Z,24.20
2018-08-10T16:28:24.900Z,24.20
2018-08-10T16:30:53.258Z,24.20
2018-08-10T16:33:21.855Z,24.10
2018-08-10T16:35:50.243Z,24.20
2018-08-10T16:38:18.624Z,24.10
2018-08-10T16:40:47.221Z,24.10
2018-08-10T16:43:15.584Z,24.10
2018-08-10T16:45:43.966Z,24.10
2018-08-10T16:48:12.426Z,24.20
2018-08-10T16:50:40.891Z,24.20
2018-08-10T16:53:09.363Z,24.30
2018-08-10T16:55:37.922Z,24.20
2018-08-10T16:58:06.438Z,24.10
2018-08-10T17:00:34.834Z,24.10
2018-08-10T17:03:03.452Z,24.20
2018-08-10T17:05:31.849Z,24.20
2018-08-10T17:08:00.258Z,24.20
2018-08-10T17:10:28.661Z,24.20
2018-08-10T17:12:57.118Z,24.20
2018-08-10T17:15:25.559Z,24.20
2018-08-10T17:17:54.147Z,24.10
2018-08-10T17:20:22.552Z,24.10
2018-08-10T17:22:50.978Z,24.20
2018-08-10T17:25:20.547Z,24.20
2018-08-10T17:27:48.991Z,24.20
2018-08-10T17:30:18.641Z,24.20
2018-08-10T17:32:47.174Z,24.20
2018-08-10T17:35:16.471Z,24.20
2018-08-10T17:37:45.910Z,24.20
2018-08-10T17:40:14.348Z,24.10
2018-08-10T17:42:43.079Z,24.10
2018-08-10T17:45:13.543Z,24.10
2018-08-10T17:47:42.031Z,24.10
2018-08-10T17:50:13.983Z,24.00
2018-08-10T17:52:44.919Z,24.10
2018-08-10T17:55:14.287Z,24.00
2018-08-10T17:57:42.746Z,23.90
2018-08-10T18:00:15.163Z,23.90
2018-08-10T18:02:43.771Z,23.90
2018-08-10T18:05:13.485Z,23.80
2018-08-10T18:07:42.154Z,23.90
2018-08-10T18:10:11.338Z,23.80
2018-08-10T18:12:40.718Z,23.90
2018-08-10T18:15:11.464Z,23.80
2018-08-10T18:17:40.535Z,23.70
2018-08-10T18:20:12.813Z,23.70
2018-08-10T18:22:41.302Z,23.70
2018-08-10T18:25:11.224Z,23.70
2018-08-10T18:27:40.356Z,23.70
2018-08-10T18:30:12.842Z,23.70
2018-08-10T18:32:41.258Z,23.60
2018-08-10T18:35:10.331Z,23.60
2018-08-10T18:37:39.766Z,23.60
2018-08-10T18:40:10.594Z,23.50
2018-08-10T18:42:39.872Z,23.50
2018-08-10T18:45:09.178Z,23.50
2018-08-10T18:47:38.612Z,23.50
2018-08-10T18:50:07.918Z,23.30
2018-08-10T18:52:36.650Z,23.30
2018-08-10T18:55:05.571Z,23.30
2018-08-10T18:57:34.360Z,23.30
2018-08-10T19:00:02.892Z,23.20
2018-08-10T19:02:31.292Z,23.10
2018-08-10T19:04:59.679Z,23.00
2018-08-10T19:07:28.091Z,23.00
2018-08-10T19:09:56.474Z,22.90
2018-08-10T19:12:24.874Z,22.90
2018-08-10T19:14:53.247Z,22.90
2018-08-10T19:17:21.624Z,22.90
2018-08-10T19:19:50.019Z,22.90
2018-08-10T19:22:18.409Z,22.90
2018-08-10T19:24:46.817Z,22.80
2018-08-10T19:27:15.291Z,22.80
2018-08-10T19:29:43.755Z,22.80
2018-08-10T19:32:12.177Z,22.80
2018-08-10T19:34:40.592Z,22.80
2018-08-10T19:37:09.019Z,22.70
2018-08-10T19:39:37.396Z,22.80
2018-08-10T19:42:05.762Z,22.80
2018-08-10T19:44:34.355Z,22.70
2018-08-10T19:47:02.743Z,22.70
2018-08-10T19:49:31.139Z,22.60
2018-08-10T19:51:59.546Z,22.60
2018-08-10T19:54:27.894Z,22.60
2018-08-10T19:56:56.410Z,22.50
2018-08-10T19:59:24.778Z,22.60
2018-08-10T20:01:53.178Z,22.70
2018-08-10T20:04:21.695Z,22.60
2018-08-10T20:06:50.085Z,22.60
2018-08-10T20:09:18.446Z,22.50
2018-08-10T20:11:46.830Z,22.50
2018-08-10T20:14:15.253Z,22.50
2018-08-10T20:16:43.629Z,22.50
2018-08-10T20:19:12.086Z,22.40
2018-08-10T20:21:40.504Z,22.40
2018-08-10T20:24:08.962Z,22.40
2018-08-10T20:26:37.391Z,22.40
2018-08-10T20:29:05.963Z,22.40
2018-08-10T20:31:34.498Z,22.30
2018-08-10T20:34:02.890Z,22.30
2018-08-10T20:36:31.275Z,22.30
2018-08-10T20:38:59.706Z,22.30
2018-08-10T20:41:28.946Z,22.30
2018-08-10T20:43:57.478Z,22.30
2018-08-10T20:46:25.891Z,22.30
2018-08-10T20:48:54.257Z,22.20
2018-08-10T20:51:22.628Z,22.20
2018-08-10T20:53:51.011Z,22.30
2018-08-10T20:56:19.402Z,22.20
2018-08-10T20:58:47.750Z,22.30
2018-08-10T21:01:16.133Z,22.30
2018-08-10T21:03:44.731Z,22.20
2018-08-10T21:06:13.177Z,22.20
2018-08-10T21:08:41.464Z,22.00
2018-08-10T21:11:10.001Z,22.10
2018-08-10T21:13:38.393Z,22.10
2018-08-10T21:16:06.821Z,22.10
2018-08-10T21:18:35.337Z,21.90
2018-08-10T21:21:03.724Z,21.90
2018-08-10T21:23:32.117Z,21.90
2018-08-10T21:26:00.547Z,22.10
2018-08-10T21:28:28.922Z,22.10
2018-08-10T21:30:57.298Z,22.10
2018-08-10T21:33:25.863Z,22.10
2018-08-10T21:35:54.205Z,22.00
2018-08-10T21:38:22.558Z,22.00
2018-08-10T21:40:50.951Z,22.00
2018-08-10T21:43:19.369Z,21.90
2018-08-10T21:45:47.750Z,21.90
2018-08-10T21:48:16.145Z,21.90
2018-08-10T21:50:44.576Z,21.90
2018-08-10T21:53:12.994Z,21.90
2018-08-10T21:55:41.367Z,21.70
2018-08-10T21:58:09.766Z,21.70
2018-08-10T22:00:52.085Z,21.80
2018-08-10T22:03:21.888Z,21.80
2018-08-10T22:05:50.488Z,21.70
2018-08-10T22:08:19.826Z,21.50
2018-08-10T22:10:48.447Z,21.40
2018-08-10T22:13:22.248Z,21.30
2018-08-10T22:15:56.059Z,21.30
2018-08-10T22:18:29.885Z,21.40
2018-08-10T22:20:58.491Z,21.40
2018-08-10T22:23:28.039Z,21.30
2018-08-10T22:25:57.425Z,21.20
2018-08-10T22:28:25.869Z,21.30
2018-08-10T22:30:54.310Z,21.30
2018-08-10T22:33:22.674Z,21.30
2018-08-10T22:35:51.070Z,21.30
2018-08-10T22:38:19.482Z,21.30
2018-08-10T22:40:47.846Z,21.30
2018-08-10T22:43:16.242Z,21.30
2018-08-10T22:45:44.678Z,21.20
2018-08-10T22:48:13.266Z,21.10
2018-08-10T22:50:41.690Z,21.10
2018-08-10T22:53:10.171Z,21.10
2018-08-10T22:55:38.661Z,21.10
2018-08-10T22:58:07.061Z,21.00
2018-08-10T23:00:35.673Z,20.80
2018-08-10T23:03:04.156Z,20.80
2018-08-10T23:05:32.521Z,20.80
2018-08-10T23:08:00.976Z,20.70
2018-08-10T23:10:29.399Z,20.60
2018-08-10T23:12:57.858Z,20.50
2018-08-10T23:15:26.281Z,20.50
2018-08-10T23:17:54.721Z,20.50
2018-08-10T23:20:23.347Z,20.40
2018-08-10T23:22:51.807Z,20.50
2018-08-10T23:25:20.190Z,20.40
2018-08-10T23:27:48.647Z,20.40
2018-08-10T23:30:17.146Z,20.30
2018-08-10T23:32:46.112Z,20.30
2018-08-10T23:35:14.571Z,20.30
2018-08-10T23:37:43.019Z,20.30
2018-08-10T23:40:13.973Z,20.30
2018-08-10T23:42:42.738Z,20.20
2018-08-10T23:45:12.187Z,20.20
2018-08-10T23:47:41.334Z,20.20
2018-08-10T23:50:12.659Z,20.20
2018-08-10T23:52:41.826Z,20.20
2018-08-10T23:55:10.759Z,20.30
2018-08-10T23:57:40.257Z,20.20
